createdAt,value
2023-12-17T00:01:48.826Z,12.18
2023-12-17T00:06:50.585Z,12.63
2023-12-17T00:11:52.381Z,12.65
2023-12-17T00:16:54.132Z,11.82
2023-12-17T00:21:55.872Z,11.70
2023-12-17T00:26:58.510Z,11.80
2023-12-17T00:32:01.529Z,12.07
2023-12-17T00:37:03.821Z,12.50
2023-12-17T00:42:05.776Z,11.95
2023-12-17T00:47:07.564Z,11.88
2023-12-17T00:52:09.433Z,12.38
2023-12-17T00:57:11.391Z,12.57
2023-12-17T01:02:14.186Z,12.48
2023-12-17T01:07:15.948Z,12.32
2023-12-17T01:12:17.812Z,13.52
2023-12-17T01:17:19.606Z,12.50
2023-12-17T01:22:21.399Z,13.15
2023-12-17T01:27:23.385Z,12.63
2023-12-17T01:32:25.202Z,12.68
2023-12-17T01:37:26.947Z,12.90
2023-12-17T01:42:28.843Z,13.50
2023-12-17T01:47:30.724Z,13.43
2023-12-17T01:52:32.523Z,12.25
2023-12-17T01:57:34.762Z,12.73
2023-12-17T02:02:36.611Z,13.02
2023-12-17T02:07:41.434Z,13.23
2023-12-17T02:12:43.267Z,12.70
2023-12-17T02:17:45.615Z,11.98
2023-12-17T02:22:57.185Z,11.88
2023-12-17T02:27:59.730Z,11.65
2023-12-17T02:33:01.546Z,11.85
2023-12-17T02:38:03.831Z,11.60
2023-12-17T02:43:05.665Z,11.70
2023-12-17T02:48:07.641Z,12.85
2023-12-17T02:53:09.544Z,12.90
2023-12-17T02:58:12.199Z,12.18
2023-12-17T03:03:14.128Z,11.38
2023-12-17T03:08:16.537Z,12.18
2023-12-17T03:13:18.398Z,11.93
2023-12-17T03:18:20.538Z,11.68
2023-12-17T03:23:22.486Z,11.15
2023-12-17T03:28:24.359Z,11.27
2023-12-17T03:33:26.312Z,10.77
2023-12-17T03:38:28.315Z,11.50
2023-12-17T03:43:30.067Z,11.63
2023-12-17T03:48:32.171Z,10.35
2023-12-17T03:53:33.941Z,9.57
2023-12-17T03:58:36.016Z,9.35
2023-12-17T04:03:38.407Z,9.35
2023-12-17T04:08:40.262Z,9.52
2023-12-17T04:13:41.965Z,11.25
2023-12-17T04:18:43.877Z,11.00
2023-12-17T04:23:46.066Z,10.52
2023-12-17T04:28:47.809Z,10.48
2023-12-17T04:33:49.798Z,10.57
2023-12-17T04:38:51.806Z,10.50
2023-12-17T04:43:53.657Z,11.90
2023-12-17T04:48:56.072Z,10.30
2023-12-17T04:53:58.097Z,9.63
2023-12-17T04:58:59.919Z,8.43
2023-12-17T05:04:01.804Z,9.55
2023-12-17T05:09:04.291Z,8.65
2023-12-17T05:14:06.162Z,10.48
2023-12-17T05:19:08.182Z,10.23
2023-12-17T05:24:10.104Z,10.85
2023-12-17T05:29:11.965Z,9.85
2023-12-17T05:34:14.116Z,9.80
2023-12-17T05:39:16.082Z,10.25
2023-12-17T05:44:17.910Z,11.20
2023-12-17T05:49:20.107Z,11.02
2023-12-17T05:54:22.033Z,10.98
2023-12-17T05:59:24.930Z,10.13
2023-12-17T06:04:26.731Z,10.75
2023-12-17T06:09:28.567Z,10.95
2023-12-17T06:14:30.359Z,11.23
2023-12-17T06:19:32.277Z,10.43
2023-12-17T06:24:34.401Z,11.35
2023-12-17T06:29:36.216Z,10.32
2023-12-17T06:34:38.747Z,10.10
2023-12-17T06:39:43.731Z,9.13
2023-12-17T06:44:45.590Z,9.35
2023-12-17T06:49:48.582Z,8.73
2023-12-17T06:54:50.352Z,7.65
2023-12-17T06:59:52.193Z,9.13
2023-12-17T07:04:53.963Z,9.98
2023-12-17T07:09:55.721Z,9.15
2023-12-17T07:14:58.317Z,8.93
2023-12-17T07:20:00.224Z,8.48
2023-12-17T07:25:02.111Z,9.25
2023-12-17T07:30:04.758Z,9.60
2023-12-17T07:35:08.446Z,7.45
2023-12-17T07:40:10.611Z,9.13
2023-12-17T07:45:12.577Z,8.80
2023-12-17T07:50:16.516Z,10.25
2023-12-17T07:55:18.635Z,8.65
2023-12-17T08:00:20.627Z,8.98
2023-12-17T08:05:22.502Z,8.90
2023-12-17T08:10:24.267Z,10.27
2023-12-17T08:15:26.203Z,8.68
2023-12-17T08:20:28.007Z,8.25
2023-12-17T08:25:31.873Z,8.10
2023-12-17T08:30:34.280Z,7.90
2023-12-17T08:35:38.921Z,5.60
2023-12-17T08:40:41.775Z,5.70
2023-12-17T08:45:43.626Z,5.32
2023-12-17T08:50:45.420Z,5.32
2023-12-17T08:55:47.194Z,5.30
2023-12-17T09:00:49.116Z,5.63
2023-12-17T09:05:51.199Z,6.05
2023-12-17T09:10:52.968Z,6.47
2023-12-17T09:15:54.703Z,6.40
2023-12-17T09:20:57.021Z,7.88
2023-12-17T09:25:59.159Z,6.38
2023-12-17T09:31:02.494Z,8.10
2023-12-17T09:36:05.958Z,6.70
2023-12-17T09:41:09.082Z,7.67
2023-12-17T09:46:11.024Z,8.50
2023-12-17T09:51:14.348Z,7.70
2023-12-17T09:56:16.245Z,8.13
2023-12-17T10:01:18.204Z,8.93
2023-12-17T10:06:21.577Z,9.02
2023-12-17T10:11:24.466Z,8.85
2023-12-17T10:16:27.678Z,8.38
2023-12-17T10:21:29.720Z,7.35
2023-12-17T10:26:50.886Z,10.27
2023-12-17T10:31:54.388Z,9.80
2023-12-17T10:36:58.174Z,8.57
2023-12-17T10:42:02.501Z,7.93
2023-12-17T10:47:05.531Z,7.50
2023-12-17T10:52:08.052Z,7.82
2023-12-17T10:57:15.860Z,7.30
2023-12-17T11:02:20.737Z,6.20
2023-12-17T11:07:31.581Z,6.65
2023-12-17T11:12:45.526Z,5.93
2023-12-17T11:17:47.947Z,5.22
2023-12-17T11:22:53.573Z,5.38
2023-12-17T11:27:56.410Z,5.13
2023-12-17T11:32:59.973Z,5.32
2023-12-17T11:38:03.969Z,5.13
2023-12-17T11:43:06.912Z,5.65
2023-12-17T11:48:11.109Z,5.28
2023-12-17T11:58:17.250Z,5.63
2023-12-17T12:03:20.193Z,5.60
2023-12-17T12:08:22.337Z,6.35
2023-12-17T12:13:24.133Z,6.90
2023-12-17T12:18:26.489Z,6.93
2023-12-17T12:23:28.545Z,8.00
2023-12-17T12:28:30.723Z,10.38
2023-12-17T12:33:34.342Z,10.32
2023-12-17T12:38:36.299Z,8.15
2023-12-17T12:43:40.808Z,8.48
2023-12-17T12:48:42.758Z,8.07
2023-12-17T12:53:45.648Z,10.75
2023-12-17T12:58:48.162Z,9.32
2023-12-17T13:03:50.540Z,9.00
2023-12-17T13:08:52.526Z,9.23
2023-12-17T13:13:54.388Z,12.10
2023-12-17T13:19:02.106Z,8.10
2023-12-17T13:24:07.478Z,7.30
2023-12-17T13:29:10.027Z,9.80
2023-12-17T13:34:12.026Z,6.18
2023-12-17T13:39:14.894Z,8.23
2023-12-17T13:44:16.739Z,7.95
2023-12-17T13:49:18.577Z,6.25
2023-12-17T13:54:20.626Z,6.75
2023-12-17T13:59:22.746Z,6.53
2023-12-17T14:04:26.201Z,7.30
2023-12-17T14:09:30.911Z,7.33
2023-12-17T14:14:34.854Z,6.97
2023-12-17T14:19:39.534Z,7.78
2023-12-17T14:24:41.909Z,7.53
2023-12-17T14:29:43.842Z,9.85
2023-12-17T14:34:45.669Z,8.45
2023-12-17T14:39:47.464Z,15.68
2023-12-17T14:44:49.225Z,15.32
2023-12-17T14:49:51.021Z,19.63
2023-12-17T14:54:52.935Z,9.57
2023-12-17T14:59:54.996Z,9.75
2023-12-17T15:04:56.956Z,10.02
2023-12-17T15:10:04.841Z,9.88
2023-12-17T15:15:07.577Z,9.25
2023-12-17T15:20:09.467Z,9.00
2023-12-17T15:25:11.926Z,8.55
2023-12-17T15:30:14.258Z,8.15
2023-12-17T15:35:17.311Z,7.30
2023-12-17T15:40:21.980Z,6.88
2023-12-17T15:45:24.572Z,8.13
2023-12-17T15:50:26.381Z,8.25
2023-12-17T15:55:28.176Z,9.27
2023-12-17T16:00:30.088Z,8.90
2023-12-17T16:05:31.941Z,8.02
2023-12-17T16:10:33.745Z,8.68
2023-12-17T16:15:37.375Z,8.50
2023-12-17T16:20:40.140Z,9.17
2023-12-17T16:25:41.916Z,8.05
2023-12-17T16:30:45.330Z,8.40
2023-12-17T16:35:50.401Z,10.23
2023-12-17T16:40:52.257Z,9.88
2023-12-17T16:45:54.029Z,8.63
2023-12-17T16:50:55.939Z,10.13
2023-12-17T16:55:57.895Z,10.55
2023-12-17T17:00:59.945Z,11.02
2023-12-17T17:06:01.920Z,9.43
2023-12-17T17:11:10.901Z,11.63
2023-12-17T17:16:15.032Z,14.35
2023-12-17T17:21:16.920Z,9.55
2023-12-17T17:26:18.810Z,9.70
2023-12-17T17:31:20.851Z,8.38
2023-12-17T17:36:22.776Z,9.93
2023-12-17T17:41:24.707Z,12.48
2023-12-17T17:46:26.528Z,9.88
2023-12-17T17:51:28.357Z,9.27
2023-12-17T17:56:30.131Z,8.10
2023-12-17T18:01:35.708Z,9.68
2023-12-17T18:06:37.490Z,8.73
2023-12-17T18:11:39.515Z,9.20
2023-12-17T18:16:41.480Z,8.23
2023-12-17T18:21:43.291Z,9.52
2023-12-17T18:26:45.165Z,8.93
2023-12-17T18:31:46.961Z,9.15
2023-12-17T18:36:48.736Z,7.15
2023-12-17T18:41:50.564Z,7.60
2023-12-17T18:46:52.317Z,7.90
2023-12-17T18:51:54.320Z,7.47
2023-12-17T18:56:56.141Z,6.95
2023-12-17T19:01:57.920Z,7.93
2023-12-17T19:06:59.670Z,8.45
2023-12-17T19:12:01.455Z,8.60
2023-12-17T19:17:06.863Z,7.65
2023-12-17T19:22:09.579Z,7.22
2023-12-17T19:27:11.389Z,7.20
2023-12-17T19:32:13.228Z,6.78
2023-12-17T19:37:15.057Z,7.35
2023-12-17T19:42:16.990Z,6.22
2023-12-17T19:47:18.882Z,6.72
2023-12-17T19:52:21.432Z,6.10
2023-12-17T19:57:23.479Z,10.45
2023-12-17T20:02:25.308Z,12.18
2023-12-17T20:07:27.119Z,11.90
2023-12-17T20:12:30.700Z,14.27
2023-12-17T20:17:32.619Z,14.05
2023-12-17T20:22:34.416Z,14.15
2023-12-17T20:27:36.367Z,12.77
2023-12-17T20:32:38.377Z,11.13
2023-12-17T20:37:40.193Z,10.77
2023-12-17T20:42:42.190Z,8.30
2023-12-17T20:47:44.421Z,8.07
2023-12-17T20:52:46.328Z,8.30
2023-12-17T20:57:48.073Z,8.70
2023-12-17T21:02:49.930Z,9.20
2023-12-17T21:07:51.833Z,8.60
2023-12-17T21:12:53.686Z,8.38
2023-12-17T21:17:55.710Z,7.28
2023-12-17T21:22:58.793Z,8.90
2023-12-17T21:28:00.676Z,9.13
2023-12-17T21:33:04.575Z,9.48
2023-12-17T21:38:09.853Z,8.80
2023-12-17T21:43:11.956Z,11.18
2023-12-17T21:48:14.237Z,10.95
2023-12-17T21:53:16.086Z,10.18
2023-12-17T21:58:17.953Z,10.90
2023-12-17T22:03:20.115Z,10.90
2023-12-17T22:08:22.483Z,10.43
2023-12-17T22:13:24.284Z,10.25
2023-12-17T22:18:26.200Z,10.57
2023-12-17T22:23:28.043Z,10.82
2023-12-17T22:28:29.848Z,11.57
2023-12-17T22:33:31.773Z,11.93
2023-12-17T22:38:33.583Z,11.48
2023-12-17T22:43:35.492Z,10.48
2023-12-17T22:48:38.531Z,12.10
2023-12-17T22:53:40.429Z,12.13
2023-12-17T22:58:42.192Z,11.43
2023-12-17T23:03:44.330Z,11.43
2023-12-17T23:08:46.184Z,8.82
2023-12-17T23:13:48.472Z,13.40
2023-12-17T23:18:50.342Z,12.10
2023-12-17T23:23:52.205Z,12.00
2023-12-17T23:28:53.939Z,10.27
2023-12-17T23:33:55.885Z,14.18
2023-12-17T23:38:57.836Z,12.73
2023-12-17T23:43:59.598Z,13.77
2023-12-17T23:49:01.424Z,15.02
2023-12-17T23:54:04.065Z,15.02
2023-12-17T23:59:05.973Z,16.92
